Time;durP1;ratioP1;P1;durP2;ratioP2;P2;SDS_P1;SDS_P2;PMS_P1;PMS_P2;Temp;Humidity;BMP_temperature;BMP_pressure;BME280_temperature;BME280_humidity;BME280_pressure;Samples;Min_cycle;Max_cycle;Signal;HPM_P1;HPM_P2
2021/12/27 00:00:47;;;;;;;9.02;7.57;;;;;;;4.89;100.00;94690.41;4993288;28;24495;-72
2021/12/27 00:03:14;;;;;;;9.32;8.23;;;;;;;4.89;100.00;94685.28;4990579;28;24836;-72
2021/12/27 00:05:41;;;;;;;9.13;7.27;;;;;;;4.93;100.00;94681.66;4993078;28;24452;-72
2021/12/27 00:08:08;;;;;;;9.45;8.50;;;;;;;4.84;100.00;94685.56;4993540;28;24436;-72
2021/12/27 00:10:35;;;;;;;8.93;8.13;;;;;;;4.83;100.00;94678.78;4993501;28;24448;-73
2021/12/27 00:13:04;;;;;;;8.20;7.35;;;;;;;4.90;100.00;94681.81;4993252;28;24440;-72
2021/12/27 00:15:31;;;;;;;8.55;7.28;;;;;;;4.91;100.00;94673.22;4992950;28;24495;-72
2021/12/27 00:17:57;;;;;;;8.35;7.55;;;;;;;4.88;100.00;94673.38;4993001;28;24994;-71
2021/12/27 00:20:24;;;;;;;8.10;7.22;;;;;;;4.97;100.00;94667.72;4993542;28;24448;-72
2021/12/27 00:22:52;;;;;;;9.15;7.30;;;;;;;4.91;100.00;94667.25;4993432;28;24487;-72
2021/12/27 00:25:20;;;;;;;7.80;7.07;;;;;;;4.85;100.00;94660.72;4992540;28;25900;-71
2021/12/27 00:27:48;;;;;;;8.38;6.80;;;;;;;4.83;100.00;94663.38;4993595;28;24445;-72
2021/12/27 00:30:18;;;;;;;8.35;7.55;;;;;;;4.81;100.00;94670.34;4993624;28;24417;-71
2021/12/27 00:32:44;;;;;;;8.07;7.38;;;;;;;4.77;100.00;94673.19;4993106;28;24433;-72
2021/12/27 00:35:12;;;;;;;12.75;6.93;;;;;;;4.76;100.00;94668.97;4992719;28;24448;-72
2021/12/27 00:37:38;;;;;;;7.40;6.70;;;;;;;4.80;100.00;94681.53;4992712;28;25039;-72
2021/12/27 00:40:07;;;;;;;7.97;7.20;;;;;;;4.79;100.00;94673.94;4993453;28;24417;-72
2021/12/27 00:42:33;;;;;;;8.00;6.78;;;;;;;4.80;100.00;94670.44;4993151;28;24476;-72
2021/12/27 00:44:59;;;;;;;8.98;7.32;;;;;;;4.81;100.00;94674.66;4992983;28;24454;-73
2021/12/27 00:47:27;;;;;;;7.35;6.65;;;;;;;4.80;100.00;94676.38;4992362;28;24479;-72
2021/12/27 00:49:54;;;;;;;8.77;7.03;;;;;;;4.77;100.00;94663.72;4993268;28;24428;-72
2021/12/27 00:52:20;;;;;;;7.53;6.50;;;;;;;4.78;100.00;94662.84;4993023;28;24499;-72
2021/12/27 00:54:46;;;;;;;7.45;6.65;;;;;;;4.76;100.00;94663.84;4992611;28;24799;-72
2021/12/27 00:57:13;;;;;;;7.57;6.88;;;;;;;4.80;100.00;94662.75;4991991;28;25129;-71
2021/12/27 00:59:39;;;;;;;7.78;6.65;;;;;;;4.79;100.00;94661.09;4992790;28;24441;-73
2021/12/27 01:02:06;;;;;;;10.48;7.82;;;;;;;4.65;100.00;94668.75;4992614;28;24436;-73
2021/12/27 01:04:34;;;;;;;8.40;7.47;;;;;;;4.64;100.00;94664.56;4992385;28;24437;-72
2021/12/27 01:07:00;;;;;;;7.30;6.60;;;;;;;4.66;100.00;94666.09;4992246;28;24460;-72
2021/12/27 01:09:36;;;;;;;8.00;7.22;;;;;;;4.69;100.00;94667.66;4992051;28;25110;-72
2021/12/27 01:12:23;;;;;;;8.10;7.40;;;;;;;4.70;100.00;94669.31;4992025;28;25012;-72
2021/12/27 01:15:07;;;;;;;8.75;7.95;;;;;;;4.69;100.00;94667.66;4992276;28;24535;-72
2021/12/27 01:17:34;;;;;;;8.77;7.88;;;;;;;4.67;100.00;94672.88;4991615;28;24456;-72
2021/12/27 01:20:02;;;;;;;7.85;7.13;;;;;;;4.62;100.00;94672.31;4987784;28;24437;-72
2021/12/27 01:22:28;;;;;;;10.95;7.40;;;;;;;4.62;100.00;94677.44;4992268;28;24437;-72
2021/12/27 01:24:55;;;;;;;8.40;7.65;;;;;;;4.55;100.00;94676.13;4991895;28;24488;-72
2021/12/27 01:27:21;;;;;;;8.40;7.60;;;;;;;4.55;100.00;94671.84;4991868;28;24503;-72
2021/12/27 01:29:48;;;;;;;8.32;7.50;;;;;;;4.55;100.00;94671.00;4991785;28;25040;-72
2021/12/27 01:32:14;;;;;;;8.05;7.18;;;;;;;4.58;100.00;94670.84;4991824;28;24444;-72
2021/12/27 01:34:41;;;;;;;8.70;7.47;;;;;;;4.64;100.00;94682.50;4991525;28;24499;-72
2021/12/27 01:37:09;;;;;;;8.07;7.18;;;;;;;4.63;100.00;94680.81;4983989;28;25005;-72
2021/12/27 01:39:35;;;;;;;8.27;7.47;;;;;;;4.65;100.00;94679.00;4992004;28;24437;-72
2021/12/27 01:42:02;;;;;;;8.03;7.27;;;;;;;4.65;100.00;94676.44;4991887;28;24511;-72
2021/12/27 01:44:28;;;;;;;7.37;6.67;;;;;;;4.68;100.00;94676.28;4991783;28;24440;-72
2021/12/27 01:46:54;;;;;;;7.27;6.57;;;;;;;4.71;100.00;94674.38;4991187;28;24437;-72
2021/12/27 01:49:21;;;;;;;7.77;7.03;;;;;;;4.70;100.00;94670.13;4991758;28;24923;-72
2021/12/27 01:51:47;;;;;;;6.75;6.03;;;;;;;4.74;100.00;94673.34;4991522;28;24439;-72
2021/12/27 01:54:15;;;;;;;7.47;6.70;;;;;;;4.68;100.00;94674.53;4991511;28;24440;-72
2021/12/27 01:56:42;;;;;;;7.30;6.22;;;;;;;4.74;100.00;94674.16;4991082;28;24827;-72
2021/12/27 01:59:08;;;;;;;7.25;6.47;;;;;;;4.72;100.00;94672.63;4990660;28;25072;-72
2021/12/27 02:01:34;;;;;;;6.93;6.22;;;;;;;4.73;100.00;94664.00;4991435;28;25009;-72
2021/12/27 02:04:01;;;;;;;6.75;6.15;;;;;;;4.66;100.00;94665.28;4991293;28;25012;-72
2021/12/27 02:06:27;;;;;;;7.35;6.60;;;;;;;4.61;100.00;94656.09;4990930;28;25044;-73
2021/12/27 02:08:54;;;;;;;7.68;6.88;;;;;;;4.56;100.00;94662.41;4991248;28;24500;-73
2021/12/27 02:11:21;;;;;;;7.63;6.93;;;;;;;4.53;100.00;94649.78;4991267;28;24484;-73
2021/12/27 02:13:49;;;;;;;7.45;6.75;;;;;;;4.52;100.00;94642.97;4991207;28;24492;-72
2021/12/27 02:16:18;;;;;;;7.57;6.88;;;;;;;4.41;100.00;94642.75;4990517;28;24440;-72
2021/12/27 02:18:45;;;;;;;7.82;7.03;;;;;;;4.31;100.00;94647.59;4991325;28;24449;-72
2021/12/27 02:21:13;;;;;;;7.32;6.32;;;;;;;4.41;100.00;94642.75;4991104;28;24492;-72
2021/12/27 02:23:41;;;;;;;6.85;6.22;;;;;;;4.40;100.00;94633.44;4991064;28;24448;-72
2021/12/27 02:26:08;;;;;;;6.35;5.75;;;;;;;4.32;100.00;94639.81;4990612;28;24980;-72
2021/12/27 02:28:36;;;;;;;5.75;5.25;;;;;;;4.38;100.00;94648.91;4991003;28;24508;-72
2021/12/27 02:31:04;;;;;;;5.80;5.30;;;;;;;4.38;100.00;94653.22;4991139;28;24527;-72
2021/12/27 02:33:31;;;;;;;6.20;5.70;;;;;;;4.36;100.00;94643.03;4991025;28;24440;-72
2021/12/27 02:35:59;;;;;;;7.53;6.77;;;;;;;4.33;100.00;94646.56;4990890;28;24815;-72
2021/12/27 02:38:29;;;;;;;7.15;6.43;;;;;;;4.35;100.00;94641.38;4990580;28;24453;-72
2021/12/27 02:40:57;;;;;;;7.07;6.38;;;;;;;4.36;100.00;94645.59;4990978;28;24468;-72
2021/12/27 02:43:25;;;;;;;6.53;5.93;;;;;;;4.39;100.00;94642.03;4990982;28;24440;-72
2021/12/27 02:45:55;;;;;;;6.60;6.00;;;;;;;4.38;100.00;94648.91;4990592;28;25216;-72
2021/12/27 02:48:23;;;;;;;7.77;6.10;;;;;;;4.35;100.00;94652.47;4990835;28;24444;-73
2021/12/27 02:50:52;;;;;;;7.03;5.97;;;;;;;4.38;100.00;94645.53;4991007;28;24488;-73
2021/12/27 02:53:19;;;;;;;6.18;5.57;;;;;;;4.34;100.00;94653.38;4991294;28;24440;-72
2021/12/27 02:55:48;;;;;;;8.02;6.00;;;;;;;4.35;100.00;94651.63;4990402;28;24444;-72
2021/12/27 02:58:14;;;;;;;5.53;5.03;;;;;;;4.34;100.00;94652.56;4990385;28;24526;-72
2021/12/27 03:00:44;;;;;;;6.00;5.35;;;;;;;4.38;100.00;94656.59;4990468;28;25037;-72
2021/12/27 03:03:10;;;;;;;5.95;5.45;;;;;;;4.43;100.00;94662.28;4991379;28;24962;-72
2021/12/27 03:05:37;;;;;;;6.03;5.53;;;;;;;4.50;100.00;94642.25;4990544;28;24436;-72
2021/12/27 03:08:04;;;;;;;5.60;5.10;;;;;;;4.63;100.00;94645.75;4990578;28;24429;-72
2021/12/27 03:10:33;;;;;;;7.97;6.05;;;;;;;4.56;100.00;94652.13;4993907;28;24795;-72
2021/12/27 03:13:02;;;;;;;6.15;5.57;;;;;;;4.59;100.00;94649.41;4994833;28;24799;-73
2021/12/27 03:15:29;;;;;;;5.97;5.40;;;;;;;4.50;100.00;94639.69;4994337;28;24443;-73
2021/12/27 03:17:55;;;;;;;6.05;5.45;;;;;;;4.42;100.00;94637.56;4994605;28;24507;-72
2021/12/27 03:20:25;;;;;;;6.93;5.00;;;;;;;4.45;100.00;94637.38;4994349;28;24460;-72
2021/12/27 03:22:51;;;;;;;5.40;4.90;;;;;;;4.49;100.00;94632.91;4994547;28;24433;-73
2021/12/27 03:25:20;;;;;;;5.80;5.22;;;;;;;4.55;100.00;94629.97;4994448;28;24850;-72
2021/12/27 03:27:47;;;;;;;6.07;5.47;;;;;;;4.54;100.00;94629.16;4994339;28;24811;-73
2021/12/27 03:30:19;;;;;;;5.68;5.15;;;;;;;4.52;100.00;94618.16;4994140;28;24437;-72
2021/12/27 03:32:45;;;;;;;7.22;5.43;;;;;;;4.55;100.00;94617.16;4994263;28;24444;-72
2021/12/27 03:35:16;;;;;;;6.07;5.00;;;;;;;4.48;100.00;94624.38;4994114;28;24441;-72
2021/12/27 03:37:46;;;;;;;5.05;4.55;;;;;;;4.48;100.00;94621.81;4994368;28;24449;-72
2021/12/27 03:40:15;;;;;;;5.60;4.90;;;;;;;4.41;100.00;94607.69;4994149;28;24437;-72
2021/12/27 03:42:41;;;;;;;5.20;4.70;;;;;;;4.43;100.00;94613.56;4994090;28;24989;-73
2021/12/27 03:45:10;;;;;;;5.35;4.85;;;;;;;4.40;100.00;94624.00;4993481;28;24440;-72
2021/12/27 03:47:38;;;;;;;5.30;4.47;;;;;;;4.44;100.00;94619.50;4993814;28;24842;-72
2021/12/27 03:50:05;;;;;;;5.32;4.82;;;;;;;4.53;100.00;94621.56;4993781;28;24823;-72
2021/12/27 03:52:31;;;;;;;6.95;5.57;;;;;;;4.54;100.00;94615.53;4993806;28;24802;-72
2021/12/27 03:54:58;;;;;;;5.55;5.05;;;;;;;4.48;100.00;94621.81;4993962;28;24499;-72
2021/12/27 03:57:24;;;;;;;5.47;4.97;;;;;;;4.42;100.00;94624.75;4993490;28;24495;-71
2021/12/27 04:00:14;;;;;;;5.95;5.15;;;;;;;4.38;100.00;94620.72;4993760;28;24524;-72
2021/12/27 04:02:41;;;;;;;6.20;5.20;;;;;;;4.31;100.00;94612.53;4985134;28;24972;-72
2021/12/27 04:05:08;;;;;;;6.20;5.38;;;;;;;4.38;100.00;94607.88;4993633;28;24441;-72
2021/12/27 04:07:35;;;;;;;5.63;5.13;;;;;;;4.32;100.00;94611.63;4993310;28;24433;-72
2021/12/27 04:10:02;;;;;;;5.40;4.93;;;;;;;4.35;100.00;94611.44;4993409;28;25008;-72
2021/12/27 04:12:28;;;;;;;5.32;4.82;;;;;;;4.40;100.00;94611.16;4993498;28;24515;-72
2021/12/27 04:14:55;;;;;;;5.38;4.88;;;;;;;4.43;100.00;94611.00;4993197;28;24853;-72
2021/12/27 04:17:22;;;;;;;5.65;5.05;;;;;;;4.38;100.00;94614.75;4993410;28;24500;-72
2021/12/27 04:19:50;;;;;;;5.22;4.72;;;;;;;4.40;100.00;94610.34;4993357;28;24444;-73
2021/12/27 04:22:16;;;;;;;5.28;4.78;;;;;;;4.43;100.00;94617.88;4991836;28;24440;-72
2021/12/27 04:24:42;;;;;;;5.57;4.97;;;;;;;4.43;100.00;94611.00;4993237;28;24437;-71
2021/12/27 04:27:09;;;;;;;5.32;4.93;;;;;;;4.38;100.00;94620.72;4993198;28;24478;-73
2021/12/27 04:29:35;;;;;;;4.63;4.22;;;;;;;4.39;100.00;94612.09;4993303;28;24827;-72
2021/12/27 04:32:02;;;;;;;5.65;4.85;;;;;;;4.40;100.00;94618.03;4993316;28;24847;-72
2021/12/27 04:34:28;;;;;;;4.95;4.55;;;;;;;4.40;100.00;94612.91;4993120;28;24452;-72
2021/12/27 04:36:56;;;;;;;4.72;4.32;;;;;;;4.46;100.00;94615.13;4992982;28;24492;-72
2021/12/27 04:39:23;;;;;;;5.15;4.55;;;;;;;4.45;100.00;94610.91;4993031;28;24495;-72
2021/12/27 04:41:49;;;;;;;4.82;4.35;;;;;;;4.52;100.00;94601.94;4992601;28;24436;-73
2021/12/27 04:44:16;;;;;;;4.60;4.20;;;;;;;4.46;100.00;94603.13;4992769;28;24518;-72
2021/12/27 04:46:43;;;;;;;5.82;5.22;;;;;;;4.39;100.00;94601.03;4992349;28;24986;-72
2021/12/27 04:49:09;;;;;;;4.97;4.22;;;;;;;4.29;100.00;94605.84;4992936;28;24480;-72
2021/12/27 04:51:36;;;;;;;4.82;4.43;;;;;;;4.23;100.00;94606.19;4992885;28;24433;-72
2021/12/27 04:54:04;;;;;;;4.47;4.00;;;;;;;4.28;100.00;94606.75;4992528;28;24504;-72
2021/12/27 04:56:31;;;;;;;5.65;4.25;;;;;;;4.26;100.00;94600.88;4992311;28;24986;-72
2021/12/27 04:58:57;;;;;;;5.18;4.55;;;;;;;4.21;100.00;94592.63;4992458;28;24843;-72
2021/12/27 05:01:23;;;;;;;4.28;3.88;;;;;;;4.25;100.00;94594.09;4992354;28;24826;-73
2021/12/27 05:03:50;;;;;;;4.47;4.07;;;;;;;4.13;100.00;94593.06;4992229;28;25121;-71
2021/12/27 05:06:17;;;;;;;5.18;4.20;;;;;;;4.18;100.00;94595.38;4992184;28;24437;-72
2021/12/27 05:08:43;;;;;;;5.30;4.28;;;;;;;4.13;100.00;94588.75;4992471;28;24854;-72
2021/12/27 05:11:11;;;;;;;5.20;4.25;;;;;;;4.13;100.00;94593.06;4992189;28;24445;-72
2021/12/27 05:13:38;;;;;;;4.80;4.07;;;;;;;3.99;100.00;94591.28;4992409;28;25000;-72
2021/12/27 05:16:05;;;;;;;5.00;4.13;;;;;;;3.98;100.00;94588.81;4991785;28;24432;-72
2021/12/27 05:18:32;;;;;;;4.97;4.55;;;;;;;3.87;100.00;94597.09;4992540;28;24511;-72
2021/12/27 05:20:58;;;;;;;4.80;4.40;;;;;;;3.83;100.00;94591.31;4992120;28;24487;-72
2021/12/27 05:23:25;;;;;;;4.70;4.30;;;;;;;3.81;100.00;94592.28;4991916;28;24519;-72
2021/12/27 05:25:51;;;;;;;4.60;4.20;;;;;;;3.86;100.00;94583.47;4991609;28;24433;-72
2021/12/27 05:28:19;;;;;;;7.47;5.97;;;;;;;3.84;100.00;94590.38;4992464;28;24417;-72
2021/12/27 05:30:48;;;;;;;19.15;13.38;;;;;;;3.79;100.00;94586.44;4992122;28;24429;-72
2021/12/27 05:33:16;;;;;;;6.60;5.85;;;;;;;3.75;100.00;94585.78;4991890;28;24499;-72
2021/12/27 05:35:42;;;;;;;5.68;4.65;;;;;;;3.72;100.00;94580.00;4991346;28;24464;-72
2021/12/27 05:38:09;;;;;;;5.88;4.78;;;;;;;3.83;100.00;94585.38;4991834;28;24450;-72
2021/12/27 05:40:36;;;;;;;5.65;4.97;;;;;;;3.75;100.00;94574.72;4992119;28;24440;-72
2021/12/27 05:43:02;;;;;;;5.43;4.95;;;;;;;3.71;100.00;94580.91;4992119;28;24436;-73
2021/12/27 05:45:31;;;;;;;8.27;5.50;;;;;;;3.63;100.00;94576.19;4991384;28;24934;-73
2021/12/27 05:47:57;;;;;;;6.53;5.40;;;;;;;3.63;100.00;94578.75;4975891;28;24441;-71
2021/12/27 05:50:24;;;;;;;6.03;5.25;;;;;;;3.64;100.00;94580.44;4991622;28;24993;-71
2021/12/27 05:52:50;;;;;;;6.72;5.18;;;;;;;3.61;100.00;94575.47;4991986;28;24806;-71
2021/12/27 05:55:17;;;;;;;5.75;5.25;;;;;;;3.59;100.00;94578.09;4991416;28;24990;-72
2021/12/27 05:57:43;;;;;;;6.95;6.28;;;;;;;3.63;100.00;94577.06;4991270;28;24488;-71
2021/12/27 06:00:13;;;;;;;7.20;6.20;;;;;;;3.60;100.00;94574.66;4991376;28;24453;-72
2021/12/27 06:02:41;;;;;;;6.07;5.03;;;;;;;3.61;100.00;94568.59;4991496;28;24437;-72
2021/12/27 06:05:08;;;;;;;6.57;5.97;;;;;;;3.56;100.00;94562.06;4990903;28;24499;-72
2021/12/27 06:07:35;;;;;;;9.57;8.23;;;;;;;3.57;100.00;94549.22;4991136;28;24780;-72
2021/12/27 06:10:01;;;;;;;8.10;7.32;;;;;;;3.46;100.00;94554.09;4991372;28;24488;-72
2021/12/27 06:12:27;;;;;;;7.63;6.30;;;;;;;3.50;100.00;94539.41;4991227;28;24444;-72
2021/12/27 06:14:54;;;;;;;6.75;6.07;;;;;;;3.53;100.00;94549.47;4991210;28;24795;-72
2021/12/27 06:17:20;;;;;;;9.00;5.55;;;;;;;3.40;100.00;94546.72;4991083;28;24433;-72
2021/12/27 06:19:48;;;;;;;5.93;5.13;;;;;;;3.27;100.00;94545.75;4991106;28;24456;-72
2021/12/27 06:22:15;;;;;;;5.63;5.13;;;;;;;3.19;100.00;94547.88;4990767;28;24495;-72
2021/12/27 06:24:41;;;;;;;5.60;4.97;;;;;;;3.12;100.00;94550.78;4991199;28;24445;-72
2021/12/27 06:27:07;;;;;;;5.70;5.20;;;;;;;3.09;100.00;94550.13;4990850;28;24440;-72
2021/12/27 06:29:34;;;;;;;5.43;4.93;;;;;;;3.03;100.00;94546.16;4990972;28;24982;-73
2021/12/27 06:32:00;;;;;;;17.30;5.68;;;;;;;3.00;100.00;94555.72;4990593;28;24464;-72
2021/12/27 06:34:27;;;;;;;31.23;5.65;;;;;;;2.94;100.00;94551.75;4990740;28;24870;-72
2021/12/27 06:36:55;;;;;;;20.90;5.63;;;;;;;2.94;100.00;94549.19;4990462;28;24440;-73
2021/12/27 06:39:21;;;;;;;13.35;5.03;;;;;;;3.01;100.00;94553.09;4991405;28;24452;-72
2021/12/27 06:41:47;;;;;;;5.50;4.90;;;;;;;3.13;100.00;94547.31;4991260;28;24424;-72
2021/12/27 06:44:14;;;;;;;10.77;5.57;;;;;;;3.14;100.00;94543.84;4990871;28;24417;-72
2021/12/27 06:46:40;;;;;;;8.50;6.33;;;;;;;3.20;100.00;94545.25;4990921;28;24454;-71
2021/12/27 06:49:07;;;;;;;6.60;5.90;;;;;;;3.19;100.00;94542.75;4991305;28;24421;-71
2021/12/27 06:51:33;;;;;;;6.10;5.50;;;;;;;3.14;100.00;94556.63;4991433;28;24483;-72
2021/12/27 06:54:01;;;;;;;6.63;5.93;;;;;;;3.19;100.00;94553.00;4990966;28;24496;-73
2021/12/27 06:56:30;;;;;;;6.20;5.70;;;;;;;3.30;100.00;94554.09;4979963;28;24433;-73
2021/12/27 06:58:56;;;;;;;8.05;6.00;;;;;;;3.31;100.00;94552.38;4990608;28;24476;-73
2021/12/27 07:01:23;;;;;;;6.22;5.63;;;;;;;3.35;100.00;94551.28;4990218;28;24831;-73
2021/12/27 07:03:49;;;;;;;7.20;6.03;;;;;;;3.37;100.00;94558.00;4990356;28;24449;-73
2021/12/27 07:06:16;;;;;;;6.50;5.90;;;;;;;3.37;100.00;94558.00;4990164;28;25248;-73
2021/12/27 07:08:42;;;;;;;7.63;6.85;;;;;;;3.35;100.00;94553.84;4990211;28;24491;-73
2021/12/27 07:11:10;;;;;;;6.88;6.28;;;;;;;3.37;100.00;94542.63;4990415;28;24433;-73
2021/12/27 07:13:37;;;;;;;6.68;6.15;;;;;;;3.43;100.00;94541.47;4990001;28;24978;-73
2021/12/27 07:16:03;;;;;;;6.40;5.80;;;;;;;3.52;100.00;94538.41;4989809;28;24443;-73
2021/12/27 07:18:30;;;;;;;7.68;6.85;;;;;;;3.60;100.00;94525.19;4990591;28;24436;-72
2021/12/27 07:20:56;;;;;;;7.30;6.43;;;;;;;3.58;100.00;94525.25;4990675;28;24839;-73
2021/12/27 07:23:23;;;;;;;6.82;6.22;;;;;;;3.52;100.00;94535.00;4990572;28;24437;-72
2021/12/27 07:25:50;;;;;;;7.53;6.32;;;;;;;3.50;100.00;94524.03;4978071;28;24477;-72
2021/12/27 07:28:17;;;;;;;7.80;6.53;;;;;;;3.50;100.00;94539.41;4971240;28;24417;-72
2021/12/27 07:30:44;;;;;;;8.02;6.63;;;;;;;3.53;100.00;94532.38;4971220;28;24425;-72
2021/12/27 07:33:11;;;;;;;8.02;6.60;;;;;;;3.53;100.00;94526.44;4971449;28;24424;-72
2021/12/27 07:35:37;;;;;;;8.35;6.38;;;;;;;3.52;100.00;94530.72;4971059;28;24468;-73
2021/12/27 07:38:04;;;;;;;6.50;5.90;;;;;;;3.54;100.00;94526.34;4984016;28;25017;-72
2021/12/27 07:40:31;;;;;;;6.73;6.07;;;;;;;3.50;100.00;94517.19;4990575;28;24511;-73
2021/12/27 07:42:57;;;;;;;9.88;6.60;;;;;;;3.49;100.00;94520.66;4990631;28;24463;-74
2021/12/27 07:45:25;;;;;;;11.60;6.53;;;;;;;3.47;100.00;94519.91;4990096;28;24483;-74
2021/12/27 07:47:52;;;;;;;6.90;6.20;;;;;;;3.40;100.00;94532.19;4990515;28;24815;-73
2021/12/27 07:50:19;;;;;;;6.50;5.93;;;;;;;3.39;100.00;94540.78;4990706;28;24424;-73
2021/12/27 07:52:45;;;;;;;8.50;6.45;;;;;;;3.34;100.00;94541.97;4990649;28;24416;-73
2021/12/27 07:55:12;;;;;;;8.15;5.50;;;;;;;3.35;100.00;94533.38;4990277;28;24997;-72
2021/12/27 07:57:38;;;;;;;8.52;6.30;;;;;;;3.39;100.00;94539.97;4993092;28;24417;-73
2021/12/27 08:00:07;;;;;;;7.82;5.90;;;;;;;3.45;100.00;94542.22;4994105;28;24452;-73
2021/12/27 08:02:35;;;;;;;23.27;7.35;;;;;;;3.40;100.00;94541.63;4994053;28;24424;-72
2021/12/27 08:05:01;;;;;;;19.45;8.02;;;;;;;3.51;100.00;94541.03;4993806;28;24826;-73
2021/12/27 08:07:28;;;;;;;10.18;8.00;;;;;;;3.57;100.00;94546.66;4993670;28;24779;-73
2021/12/27 08:09:55;;;;;;;16.83;9.93;;;;;;;3.57;100.00;94538.97;4993657;28;24413;-73
2021/12/27 08:12:21;;;;;;;30.23;8.18;;;;;;;3.55;100.00;94545.91;4993642;28;24425;-74
2021/12/27 08:14:48;;;;;;;26.63;7.90;;;;;;;3.55;100.00;94542.50;4979293;28;24508;-71
2021/12/27 08:17:14;;;;;;;12.43;10.85;;;;;;;3.52;100.00;94543.53;4979360;28;24460;-72
2021/12/27 08:19:42;;;;;;;21.00;16.25;;;;;;;3.48;100.00;94551.44;4993249;28;24851;-72
2021/12/27 08:22:08;;;;;;;11.77;7.40;;;;;;;3.55;100.00;94551.00;4993190;28;24433;-72
2021/12/27 08:24:35;;;;;;;10.00;6.70;;;;;;;3.61;100.00;94532.78;4993182;28;25022;-72
2021/12/27 08:27:02;;;;;;;6.72;6.13;;;;;;;3.59;100.00;94536.31;4992732;28;24488;-72
2021/12/27 08:29:29;;;;;;;12.10;6.43;;;;;;;3.59;100.00;94536.31;4993389;28;24443;-72
2021/12/27 08:31:55;;;;;;;7.05;6.18;;;;;;;3.44;100.00;94532.84;4993435;28;24464;-72
2021/12/27 08:34:22;;;;;;;7.32;5.20;;;;;;;3.57;100.00;94531.28;4993312;28;24432;-72
2021/12/27 08:36:49;;;;;;;12.77;5.97;;;;;;;3.47;100.00;94534.44;4993011;28;24436;-72
2021/12/27 08:39:16;;;;;;;8.85;5.57;;;;;;;3.42;100.00;94529.56;4993159;28;24452;-73
2021/12/27 08:41:43;;;;;;;10.02;5.35;;;;;;;3.48;100.00;94533.53;4993136;28;24472;-73
2021/12/27 08:44:09;;;;;;;6.45;5.80;;;;;;;3.50;100.00;94524.84;4993127;28;24421;-73
2021/12/27 08:46:36;;;;;;;9.95;5.80;;;;;;;3.50;100.00;94531.72;4992952;28;24818;-73
2021/12/27 08:49:03;;;;;;;7.20;6.50;;;;;;;3.55;100.00;94527.16;4977767;28;24429;-73
2021/12/27 08:51:30;;;;;;;6.00;5.50;;;;;;;3.60;100.00;94526.00;4973500;28;24990;-71
2021/12/27 08:53:58;;;;;;;7.00;6.30;;;;;;;3.63;100.00;94533.53;4973424;28;24421;-72
2021/12/27 08:56:25;;;;;;;7.85;6.78;;;;;;;3.70;100.00;94548.53;4972062;28;25033;-71
2021/12/27 08:58:51;;;;;;;7.80;7.00;;;;;;;3.73;100.00;94553.47;4990457;28;24878;-74
2021/12/27 09:01:18;;;;;;;11.15;6.95;;;;;;;3.76;100.00;94551.56;4992070;28;24440;-72
2021/12/27 09:03:44;;;;;;;11.57;7.55;;;;;;;3.72;100.00;94550.09;4992663;28;24444;-72
2021/12/27 09:06:11;;;;;;;9.63;6.78;;;;;;;3.68;100.00;94545.25;4992003;28;24488;-74
2021/12/27 09:08:37;;;;;;;10.43;6.57;;;;;;;3.77;100.00;94550.66;4991735;28;24437;-73
2021/12/27 09:11:05;;;;;;;11.95;7.53;;;;;;;3.67;100.00;94553.81;4992810;28;24815;-72
2021/12/27 09:13:33;;;;;;;13.10;6.88;;;;;;;3.69;100.00;94544.31;4992644;28;24432;-72
2021/12/27 09:16:01;;;;;;;7.80;7.00;;;;;;;3.78;100.00;94543.78;4992337;28;24424;-72
2021/12/27 09:18:28;;;;;;;12.52;6.00;;;;;;;3.81;100.00;94529.09;4992580;28;24427;-73
2021/12/27 09:20:54;;;;;;;16.08;6.20;;;;;;;3.76;100.00;94525.16;4992462;28;24541;-73
2021/12/27 09:23:21;;;;;;;20.52;6.53;;;;;;;3.80;100.00;94518.94;4992093;28;24471;-72
2021/12/27 09:25:47;;;;;;;19.83;6.25;;;;;;;3.80;100.00;94522.31;4992408;28;24799;-72
2021/12/27 09:28:15;;;;;;;17.27;7.70;;;;;;;3.77;100.00;94530.16;4992494;28;24448;-72
2021/12/27 09:30:42;;;;;;;10.60;7.40;;;;;;;3.83;100.00;94529.03;4992284;28;24779;-72
2021/12/27 09:33:09;;;;;;;8.23;7.05;;;;;;;3.90;100.00;94526.94;4992165;28;24444;-73
2021/12/27 09:35:36;;;;;;;25.17;6.95;;;;;;;3.78;100.00;94538.69;4991660;28;24791;-73
2021/12/27 09:38:03;;;;;;;23.20;6.70;;;;;;;3.79;100.00;94525.81;4992048;28;24783;-73
2021/12/27 09:40:30;;;;;;;11.85;5.95;;;;;;;3.86;100.00;94523.72;4992082;28;24499;-73
2021/12/27 09:42:57;;;;;;;17.02;5.82;;;;;;;3.81;100.00;94525.69;4992426;28;24421;-72
2021/12/27 09:45:25;;;;;;;11.38;6.35;;;;;;;3.77;100.00;94525.06;4991705;28;24429;-73
2021/12/27 09:47:52;;;;;;;12.82;6.55;;;;;;;3.83;100.00;94523.91;4991876;28;25172;-73
2021/12/27 09:50:22;;;;;;;13.20;8.10;;;;;;;3.82;100.00;94524.78;4991719;28;24421;-73
2021/12/27 09:52:49;;;;;;;10.10;7.13;;;;;;;3.86;100.00;94521.16;4991996;28;24506;-73
2021/12/27 09:55:16;;;;;;;23.42;9.90;;;;;;;3.81;100.00;94520.59;4991755;28;24787;-73
2021/12/27 09:57:43;;;;;;;12.85;9.00;;;;;;;3.93;100.00;94519.06;4991835;28;24413;-73
2021/12/27 10:00:11;;;;;;;17.48;11.10;;;;;;;3.88;100.00;94515.03;4991695;28;24452;-73
2021/12/27 10:02:40;;;;;;;13.40;6.95;;;;;;;3.88;100.00;94509.91;4991729;28;24421;-73
2021/12/27 10:05:08;;;;;;;24.00;8.80;;;;;;;3.84;100.00;94505.88;4991145;28;25478;-73
2021/12/27 10:07:41;;;;;;;15.85;8.35;;;;;;;3.89;100.00;94508.16;4991606;28;24424;-71
2021/12/27 10:10:10;;;;;;;7.30;6.35;;;;;;;3.94;100.00;94510.47;4991693;28;24521;-73
2021/12/27 10:12:38;;;;;;;15.48;7.97;;;;;;;3.97;100.00;94493.22;4991516;28;24417;-75
2021/12/27 10:15:07;;;;;;;13.80;7.70;;;;;;;3.99;100.00;94496.50;4991288;28;24970;-74
2021/12/27 10:17:37;;;;;;;9.98;7.47;;;;;;;3.94;100.00;94495.94;4991122;28;24471;-73
2021/12/27 10:20:13;;;;;;;9.73;7.57;;;;;;;4.05;100.00;94492.75;4990661;28;24448;-72
2021/12/27 10:22:41;;;;;;;11.95;9.20;;;;;;;3.98;100.00;94497.41;4991574;28;24432;-72
2021/12/27 10:25:14;;;;;;;8.32;7.38;;;;;;;4.08;100.00;94495.16;4991154;28;24985;-72
2021/12/27 10:27:41;;;;;;;10.68;8.82;;;;;;;4.11;100.00;94493.22;4991233;28;24508;-72
2021/12/27 10:30:15;;;;;;;8.27;7.45;;;;;;;4.23;100.00;94489.13;4991223;28;24942;-72
2021/12/27 10:32:44;;;;;;;9.32;8.43;;;;;;;4.22;100.00;94490.03;4991358;28;24439;-72
2021/12/27 10:35:12;;;;;;;9.50;8.05;;;;;;;4.27;100.00;94484.66;4991156;28;24472;-72
2021/12/27 10:37:39;;;;;;;9.65;7.32;;;;;;;4.16;100.00;94479.34;4991135;28;24467;-72
2021/12/27 10:40:08;;;;;;;8.40;7.53;;;;;;;4.23;100.00;94475.50;4991092;28;24811;-72
2021/12/27 10:42:36;;;;;;;9.80;7.82;;;;;;;4.32;100.00;94473.19;4991148;28;24425;-72
2021/12/27 10:45:06;;;;;;;7.47;6.78;;;;;;;4.38;100.00;94472.03;4991104;28;24420;-72
2021/12/27 10:47:38;;;;;;;7.85;7.05;;;;;;;4.34;100.00;94470.56;4990977;28;24786;-73
2021/12/27 10:50:13;;;;;;;9.98;8.45;;;;;;;4.29;100.00;94463.13;4991131;28;24424;-73
2021/12/27 10:52:41;;;;;;;9.90;8.43;;;;;;;4.27;100.00;94470.09;4989982;28;25009;-73
2021/12/27 10:55:08;;;;;;;9.95;7.47;;;;;;;4.25;100.00;94463.41;4986882;28;24441;-72
2021/12/27 10:57:35;;;;;;;7.68;6.57;;;;;;;4.28;100.00;94468.34;4990825;28;24517;-75
2021/12/27 11:00:30;;;;;;;7.80;7.10;;;;;;;4.30;100.00;94466.50;4990254;28;25021;-73
2021/12/27 11:03:02;;;;;;;8.93;7.93;;;;;;;4.29;100.00;94472.56;4990443;28;24973;-72
2021/12/27 11:05:31;;;;;;;14.85;9.85;;;;;;;4.33;100.00;94469.72;4990507;28;24448;-72
2021/12/27 11:08:01;;;;;;;12.05;8.60;;;;;;;4.38;100.00;94468.66;4990633;28;25018;-72
2021/12/27 11:10:30;;;;;;;9.02;7.75;;;;;;;4.31;100.00;94465.63;4990839;28;24846;-72
2021/12/27 11:12:59;;;;;;;10.75;8.00;;;;;;;4.28;100.00;94465.78;4990119;28;24468;-72
2021/12/27 11:15:27;;;;;;;10.67;8.67;;;;;;;4.33;100.00;94469.72;4990424;28;24536;-72
2021/12/27 11:17:54;;;;;;;16.05;8.05;;;;;;;4.36;100.00;94461.03;4990642;28;24448;-71
2021/12/27 11:20:21;;;;;;;10.20;8.18;;;;;;;4.34;100.00;94456.00;4990929;28;24538;-72
2021/12/27 11:22:52;;;;;;;8.77;7.32;;;;;;;4.39;100.00;94455.72;4990683;28;24457;-72
2021/12/27 11:25:27;;;;;;;10.63;7.53;;;;;;;4.43;100.00;94444.38;4990249;28;24523;-71
2021/12/27 11:27:54;;;;;;;9.40;7.68;;;;;;;4.54;100.00;94439.41;4990647;28;24433;-72
2021/12/27 11:30:23;;;;;;;7.85;7.15;;;;;;;4.55;100.00;94438.50;4991582;28;24432;-72
2021/12/27 11:33:12;;;;;;;10.20;8.13;;;;;;;4.53;100.00;94432.66;4994112;28;24851;-72